Timeline UpdatesTrip UpdatesNews PostsPvt PostsTravel TipsAdmin PostsConv PostsFollowed PostsChat RequestsBlog PostsPNR Posts

Disclaimer
Search
 
 
Mon Sep 1, 2014 13:04:06 ISTHomeTrainsΣChainsAtlasPNRForumGalleryNewsFAQTripsMembersLoginFeedback
No Recent News for this Train
Other Trains in the News **new
Latest...
Will be short originated from Faizabad from 27/11 to 04/12.
Mon Nov 25, 2013 (01:33PM)
⇐ Return Journey: Train# 54334

54333/Varanasi Lucknow Passenger (UnReserved)

OLD Time-Table. New TT will soon be available.
Sep 12 2013 (12:46PM)
Change Departure Station:
Change Arrival Station:
Post a Train Travel TipPost a Train Travel Tip **new
Post a Comment/Question/Picture/VideoPost a Comment/Question/Picture/Video
Pantry/Catering
???
RSA - Rake Sharing
Rake/Coach Composition
Loco
News    PNR    Forum    Time-Table    Availability    Fare Chart    Map    Arr/Dep History    Trips    Gallery    ΣChains    X/O    Timeline    
Travel Time: 7h 26m    35 halts    Distance: 248 km    Avg Speed: 33 km/hr
Type: Passenger
Zone: NR/Northern
Departs @ 04:10 (Avg 3m late)
Platform# 7
SMTWTFS
Varanasi Junction/BSB 
Arrives @ 11:36 (Avg 1h 59m late)
Platform# ???
SMTWTFS
Patranga/PTH 

35 halts. 36 intermediate Stations between Varanasi Junction and Patranga

Show ALL intermediate Stations  Show Old Time-Table

#CodeStation NameX/OArrivesAvgDepartsAvgHaltPFDay#KmSpeedElevZoneAddress
1BSB»Varanasi Junction (9)»  -04:10+3710.03482mNRVaranasi 221002, Uttar Pradesh
2SOPShivpur (3)  04:20+1604:21+171m--15.64881mNRVaranasi, Uttar Pradesh
3BRPTBirapatti (2)X  04:29+1904:30+191m--112.05084mNRRd Varanasi Uttar Pradesh, Uttar Pradesh
4BTPBabatpur (2)X  04:38+1904:39+191m--118.65484mNRSatomahua-Mangari Rd, Uttar Pradesh
5PDRDPindra Road (2)X  04:45-04:46-1m--124.03981mNRSatomahua-Mangari Rd, Uttar Pradesh
6KSFKhalispur (2)  04:52+1604:53+161m--127.93983mNRPhulpur, Uttar Pradesh
7TLMDTrilochan Mahdo (2)X  05:01+1805:02+181m--133.15383mNRNational Highway 56, Uttar Pradesh
8JLLJalalGanj (2)X  05:09+1905:10+191m--139.25187mNRJalalganj Railway Station, Uttar Pradesh
9SIQSarkoni (2)  05:17+1905:18+191m--145.13385mNRBandipur, Uttar Pradesh
10ZBDZafarabad Junction (4)  05:29+1505:30+191m--151.24383mNRNational Highway 56, Uttar Pradesh
11JNUJaunpur Junction (5)  05:39+1505:41+172m--157.73783mNRJaunpur, Uttar Pradesh
12MGWNMahgawan Halt (1)  05:51+2405:52+241m1163.85184mNRDalhanpur, Uttar Pradesh
13MIHMihrawan (1)  05:59+2606:00+331m1169.74988mNRChak Bhavani Shanker, Uttar Pradesh
14MNKNManikalan Halt (1)X  06:07-06:08-1m1175.54285mNRNawab Yousuf Rd, Uttar Pradesh
15KSKheta Sarai (1)  06:15+3106:16+341m1180.43488mNRKheta Sarai, Uttar Pradesh
16SHGShahganj Junction (4)X  06:35+2706:43+298m1191.013290mNRShahganj, Uttar Pradesh
17BWIBilwai (1)X  06:48+3906:49+401m11102.04891mNRBilwai, Uttar Pradesh
18TLGRTulsi NagarX  06:57+4206:58+451m--1108.45191mNRNawab Yousuf Rd, Uttar Pradesh
19MLPRMalipur (2)  07:07+4607:08+531m--1116.05992mNRMalipur, Uttar Pradesh
20JFGJafarganj  07:18+5607:19+1:051m--1125.94692mNRNawab Yousuf Rd, Uttar Pradesh
21ABPAkbarpur (2)X  07:31+5807:33+1:072m--1135.16392mNRAkbarpur, Uttar Pradesh
22KTHEKatahri  07:44+1:1607:45+1:171m--1146.76495mNRKatehri, Uttar Pradesh
23GGJGoshainGanj (3)  07:55+1:1907:56+1:251m--1157.35698mNRGoshainganj, Uttar Pradesh
24ULNUlna BhariX  08:05+1:2708:06+1:331m--1165.757104mNRNawab Yousuf Rd, Uttar Pradesh
25BLGBilhar Ghat  08:15+1:3208:16+1:361m--1174.254104mNRNawab Yousuf Rd, Uttar Pradesh
26DRGDarshannagar (2)  08:27+1:3508:28+1:431m--1184.127103mNRayodhya, Uttar Pradesh
27AYAyodhya Junction (3)X  08:39+1:2708:40+1:541m--1189.01998mNRAyodhya, Uttar Pradesh
28ACNDAcharya Narendra Dev Nagar  08:54+2:1108:55+2:331m--1193.52104mNRFaizabad, Uttar Pradesh
29FDFaizabad Junction (5)X  10:00+1:1210:13+1:1213m--1195.747104mNRFaizabad, Uttar Pradesh
30SLRPSalarpurX  10:24+1:3810:25+1:401m--1204.444106mNRJaganpur, Uttar Pradesh
31SLWSohwalX  10:34+1:4010:35+1:431m--1211.051107mNRFaizabad Rd, Uttar Pradesh
32DELODeorakot  10:44+1:4510:45+1:511m--1218.735110mNRDewracoat, Uttar Pradesh
33BNMBaragaon  10:55+1:4910:56+1:511m--1224.643115mNRFaizabad Rd, Uttar Pradesh
34GMUGauriyamau  11:02-11:03-1m--1228.833108mNRFaizabad Rd, Uttar Pradesh
35RDLRudauli (2)  11:12+1:4911:13+2:031m--1233.833112mNRRudauli, Uttar Pradesh
36RZNRauzagaon  11:23+2:0111:24+2:021m--1239.445111mNRFaizabad Rd, Uttar Pradesh
37PTH•Patranga•  11:36+1:5911:37+1:591m--1248.437113mNRFaizabad Rd, Uttar Pradesh
38DYDDaryabad  11:51+1:5611:52+2:011m--1257.039116mNRFaizabad Rd, Uttar Pradesh
39SYKSaidkhanpur  12:07+1:5912:08+2:041m--1266.738116mNRSaidkhanpur, Uttar Pradesh
40SGJSafdarGanj  12:24+1:5912:25+2:081m--1276.847116mNRFaizabad Rd, Uttar Pradesh
41RESRasauliXO  12:39+2:0512:40+2:051m--1287.73125mNRFaizabad Rd, Uttar Pradesh
42BBKBarabanki Junction (4)  15:09+4415:10+461m--1295.030122mNRPin-225001, Uttar Pradesh
43SFHSafedabad (3)  15:25+715:26+71m--1302.629120mNRBarabanki, Uttar Pradesh
44JRRJugaur (1)X  15:33-15:34-1m11306.033123mNRCanal Rd, Uttar Pradesh
45MLMalhaur (3)  15:44+215:45+431m--1311.524121mNRLucknow, Uttar Pradesh
46LKOLucknow Charbagh (9)  16:15+1:26-41323.4-123mNR226004, Uttar Pradesh
Scroll to Top
Scroll to Bottom